^^
Saratoga-Weather Station Historical Data
Daily Summary for April 17, 2020 Units:  Metric    English   Both
Daily Weekly Monthly Yearly Custom
  High: Low: Average:
Temperature: 25.9 °C 17.1 °C 20.9 °C
Dew Point: 17.6 °C 13.6 °C 15.6 °C
Humidity: 95% 49% 74%
Wind Speed: 16.3km/h 0km/h 3.2km/h
Wind Gust: 22.5km/h - -
Wind- - WSW
Pressure: 1010.8 hPa 1008.5 hPa -
Precipitation: 6.1 mm    
Historical Graphs
 
 
Tabular Data for April 17, 2020
Time Temperature Dew Point Pressure Wind Wind Speed Wind Gust Humidity Rainfall Rate (Hourly) solar
00:02 21.8 °C 16.1 °C 1008.5 hPa West 1.4 km/h 9.7 km/h 70% 0.0 mm 0 W/m2
00:07 21.8 °C 16.5 °C 1008.5 hPa Calm   3.2 km/h 72% 0.0 mm 0 W/m2
00:12 21.7 °C 17.1 °C 1008.8 hPa SW 3.2 km/h 3.2 km/h 75% 0.0 mm 0 W/m2
00:17 21.4 °C 17.4 °C 1009.1 hPa ENE 1.4 km/h 3.2 km/h 78% 0.0 mm 0 W/m2
00:22 20.9 °C 17.1 °C 1009.5 hPa East 1.4 km/h 3.2 km/h 79% 0.5 mm 0 W/m2
00:27 20.5 °C 17.1 °C 1009.5 hPa ESE 3.2 km/h 6.4 km/h 81% 0.5 mm 0 W/m2
00:33 20.2 °C 17.2 °C 1009.8 hPa Calm   3.2 km/h 83% 0.8 mm 0 W/m2
00:38 20.1 °C 17.3 °C 1009.8 hPa Calm   3.2 km/h 84% 1.5 mm 0 W/m2
00:43 19.9 °C 17.3 °C 1009.8 hPa NE 1.4 km/h 4.8 km/h 85% 1.8 mm 0 W/m2
00:48 19.7 °C 17.5 °C 1009.8 hPa Calm   3.2 km/h 87% 2.3 mm 0 W/m2
00:53 19.5 °C 17.5 °C 1009.8 hPa SW 1.4 km/h 4.8 km/h 88% 3.3 mm 0 W/m2
00:58 19.3 °C 17.6 °C 1009.8 hPa SSE 1.4 km/h 3.2 km/h 90% 3.8 mm 0 W/m2
01:03 19.1 °C 17.6 °C 1009.8 hPa Calm   3.2 km/h 91% 4.3 mm 0 W/m2
01:08 18.9 °C 17.4 °C 1009.8 hPa ENE 3.2 km/h 3.2 km/h 91% 4.8 mm 0 W/m2
01:13 18.9 °C 17.6 °C 1009.5 hPa Calm   1.6 km/h 92% 4.8 mm 0 W/m2
01:18 18.8 °C 17.5 °C 1009.5 hPa Calm   1.6 km/h 92% 4.8 mm 0 W/m2
01:23 18.7 °C 17.4 °C 1009.5 hPa Calm     92% 4.3 mm 0 W/m2
01:28 18.7 °C 17.5 °C 1009.1 hPa Calm     93% 4.3 mm 0 W/m2
01:33 18.6 °C 17.4 °C 1009.1 hPa Calm     93% 4.1 mm 0 W/m2
01:38 18.6 °C 17.4 °C 1009.1 hPa Calm   1.6 km/h 93% 3.3 mm 0 W/m2
01:43 18.4 °C 17.2 °C 1009.1 hPa Calm     93% 3.0 mm 0 W/m2
01:48 18.4 °C 17.2 °C 1009.1 hPa Calm     93% 2.3 mm 0 W/m2
01:53 18.4 °C 17.2 °C 1009.1 hPa Calm     93% 1.5 mm 0 W/m2
01:58 18.3 °C 17.1 °C 1009.1 hPa Calm     93% 0.8 mm 0 W/m2
02:03 18.3 °C 17.3 °C 1009.1 hPa Calm     94% 0.5 mm 0 W/m2
02:08 18.2 °C 17.2 °C 1008.8 hPa Calm     94% 0.2 mm 0 W/m2
02:13 18.2 °C 17.2 °C 1008.8 hPa Calm     94% 0.2 mm 0 W/m2
02:18 18.2 °C 17.2 °C 1008.8 hPa Calm     94% 0.2 mm 0 W/m2
02:23 18.1 °C 17.1 °C 1008.8 hPa Calm     94% 0.2 mm 0 W/m2
02:28 17.9 °C 16.9 °C 1008.8 hPa Calm   1.6 km/h 94% 0.2 mm 0 W/m2
02:33 17.9 °C 16.9 °C 1008.8 hPa Calm   3.2 km/h 94% 0.2 mm 0 W/m2
02:38 17.8 °C 16.8 °C 1008.8 hPa Calm     94% 0.2 mm 0 W/m2
02:43 17.8 °C 16.8 °C 1008.8 hPa Calm   3.2 km/h 94% 0.2 mm 0 W/m2
02:48 17.8 °C 16.8 °C 1008.8 hPa Calm     94% 0.2 mm 0 W/m2
02:53 17.7 °C 16.7 °C 1008.8 hPa Calm     94% 0.2 mm 0 W/m2
02:58 17.6 °C 16.6 °C 1008.8 hPa Calm     94% 0.2 mm 0 W/m2
03:03 17.6 °C 16.8 °C 1009.1 hPa Calm     95% 0.0 mm 0 W/m2
03:08 17.4 °C 16.4 °C 1009.1 hPa Calm   1.6 km/h 94% 0.0 mm 0 W/m2
03:14 17.4 °C 16.6 °C 1009.1 hPa Calm     95% 0.0 mm 0 W/m2
03:19 17.4 °C 16.6 °C 1009.1 hPa WSW 1.4 km/h 4.8 km/h 95% 0.0 mm 0 W/m2
03:24 17.5 °C 16.7 °C 1009.1 hPa WNW 3.2 km/h 4.8 km/h 95% 0.0 mm 0 W/m2
03:29 17.6 °C 16.8 °C 1009.1 hPa West 3.2 km/h 6.4 km/h 95% 0.0 mm 0 W/m2
03:34 17.7 °C 16.9 °C 1009.1 hPa WNW 3.2 km/h 8 km/h 95% 0.0 mm 0 W/m2
03:39 17.8 °C 17 °C 1009.1 hPa West 1.4 km/h 11.3 km/h 95% 0.0 mm 0 W/m2
03:44 17.8 °C 17 °C 1009.1 hPa WNW 6.4 km/h 16.1 km/h 95% 0.0 mm 0 W/m2
03:49 17.8 °C 17 °C 1009.1 hPa West 4.7 km/h 6.4 km/h 95% 0.0 mm 0 W/m2
03:54 17.8 °C 17 °C 1009.1 hPa WNW 4.7 km/h 11.3 km/h 95% 0.0 mm 0 W/m2
03:59 17.8 °C 17 °C 1009.1 hPa WNW 6.4 km/h 9.7 km/h 95% 0.0 mm 0 W/m2
04:04 17.9 °C 17.1 °C 1009.1 hPa West 3.2 km/h 4.8 km/h 95% 0.0 mm 0 W/m2
04:09 18.1 °C 17.1 °C 1009.1 hPa WNW 1.4 km/h 4.8 km/h 94% 0.0 mm 0 W/m2
04:14 18.1 °C 17.1 °C 1009.1 hPa NW 4.7 km/h 11.3 km/h 94% 0.0 mm 0 W/m2
04:19 18.2 °C 17.2 °C 1009.5 hPa NW 6.4 km/h 16.1 km/h 94% 0.0 mm 0 W/m2
04:24 18.2 °C 17 °C 1009.1 hPa SW 7.9 km/h 12.9 km/h 93% 0.0 mm 0 W/m2
04:29 18.2 °C 17 °C 1009.5 hPa West 9.7 km/h 12.9 km/h 93% 0.0 mm 0 W/m2
04:34 18.2 °C 17 °C 1009.1 hPa West 13 km/h 14.5 km/h 93% 0.2 mm 0 W/m2
04:39 18.1 °C 16.8 °C 1009.1 hPa WNW 3.2 km/h 6.4 km/h 92% 1.0 mm 0 W/m2
04:44 17.9 °C 16.6 °C 1009.1 hPa West 3.2 km/h 12.9 km/h 92% 1.0 mm 0 W/m2
04:49 17.9 °C 16.6 °C 1009.1 hPa WNW 1.4 km/h 3.2 km/h 92% 1.0 mm 0 W/m2
04:54 17.9 °C 16.8 °C 1009.1 hPa WSW 1.4 km/h 8 km/h 93% 1.0 mm 0 W/m2
04:59 17.9 °C 16.8 °C 1009.1 hPa WSW 1.4 km/h 4.8 km/h 93% 1.0 mm 0 W/m2
05:04 17.8 °C 16.7 °C 1009.1 hPa West 1.4 km/h 4.8 km/h 93% 1.0 mm 0 W/m2
05:09 17.8 °C 16.7 °C 1009.1 hPa Calm   1.6 km/h 93% 1.0 mm 0 W/m2
05:14 17.8 °C 16.7 °C 1009.1 hPa Calm   1.6 km/h 93% 1.0 mm 0 W/m2
05:19 17.7 °C 16.7 °C 1009.1 hPa WNW 1.4 km/h 1.6 km/h 94% 1.0 mm 0 W/m2
05:24 17.6 °C 16.5 °C 1009.1 hPa SSE 1.4 km/h 3.2 km/h 93% 1.0 mm 0 W/m2
05:29 17.6 °C 16.6 °C 1009.1 hPa Calm   3.2 km/h 94% 1.0 mm 0 W/m2
05:34 17.5 °C 16.5 °C 1009.1 hPa West 1.4 km/h 4.8 km/h 94% 0.5 mm 0 W/m2
05:39 17.5 °C 16.5 °C 1009.1 hPa WNW 3.2 km/h 9.7 km/h 94% 0.0 mm 0 W/m2
05:44 17.5 °C 16.5 °C 1009.1 hPa West 1.4 km/h 3.2 km/h 94% 0.0 mm 0 W/m2
05:49 17.6 °C 16.6 °C 1009.1 hPa Calm   6.4 km/h 94% 0.0 mm 0 W/m2
05:54 17.6 °C 16.6 °C 1009.1 hPa SW 3.2 km/h 3.2 km/h 94% 0.0 mm 0 W/m2
05:59 17.6 °C 16.6 °C 1008.8 hPa SW 1.4 km/h 1.6 km/h 94% 0.0 mm 0 W/m2
06:04 17.6 °C 16.6 °C 1008.8 hPa Calm     94% 0.0 mm 0 W/m2
06:09 17.4 °C 16.4 °C 1009.1 hPa Calm   1.6 km/h 94% 0.0 mm 0 W/m2
06:14 17.3 °C 16.3 °C 1009.1 hPa SE 1.4 km/h 1.6 km/h 94% 0.0 mm 0 W/m2
06:19 17.3 °C 16.3 °C 1009.1 hPa SE 1.4 km/h 3.2 km/h 94% 0.0 mm 0 W/m2
06:24 17.2 °C 16.2 °C 1008.8 hPa SW 1.4 km/h 3.2 km/h 94% 0.0 mm 0 W/m2
06:29 17.2 °C 16.2 °C 1009.1 hPa Calm     94% 0.0 mm 0 W/m2
06:34 17.2 °C 16.2 °C 1009.1 hPa SE 4.7 km/h 6.4 km/h 94% 0.0 mm 0 W/m2
06:39 17.2 °C 16.2 °C 1009.1 hPa SW 1.4 km/h 3.2 km/h 94% 0.0 mm 0 W/m2
06:44 17.3 °C 16.3 °C 1009.1 hPa West 1.4 km/h 4.8 km/h 94% 0.0 mm 5 W/m2
06:50 17.3 °C 16.3 °C 1009.1 hPa Calm   1.6 km/h 94% 0.0 mm 7 W/m2
06:55 17.3 °C 16.3 °C 1009.1 hPa ESE 1.4 km/h 4.8 km/h 94% 0.0 mm 7 W/m2
07:00 17.3 °C 16.3 °C 1009.1 hPa Calm   3.2 km/h 94% 0.0 mm 7 W/m2
07:05 17.3 °C 16.3 °C 1009.1 hPa East 4.7 km/h 4.8 km/h 94% 0.0 mm 11 W/m2
07:10 17.3 °C 16.3 °C 1009.1 hPa East 1.4 km/h 3.2 km/h 94% 0.0 mm 14 W/m2
07:15 17.2 °C 16.2 °C 1009.1 hPa East 4.8 km/h 4.8 km/h 94% 0.0 mm 14 W/m2
07:20 17.2 °C 16.2 °C 1009.1 hPa East 4.7 km/h 4.8 km/h 94% 0.0 mm 16 W/m2
07:25 17.1 °C 16.1 °C 1009.5 hPa WNW 1.4 km/h 1.6 km/h 94% 0.0 mm 21 W/m2
07:30 17.2 °C 16.1 °C 1009.1 hPa WNW 4.7 km/h 4.8 km/h 93% 0.0 mm 28 W/m2
07:35 17.2 °C 16.1 °C 1009.1 hPa NW 4.7 km/h 8 km/h 93% 0.0 mm 32 W/m2
07:40 17.3 °C 16.2 °C 1009.5 hPa West 4.7 km/h 9.7 km/h 93% 0.0 mm 37 W/m2
07:45 17.3 °C 16 °C 1009.5 hPa West 11.1 km/h 11.3 km/h 92% 0.0 mm 37 W/m2
07:50 17.3 °C 16 °C 1009.5 hPa SSW 1.4 km/h 6.4 km/h 92% 0.0 mm 44 W/m2
07:55 17.3 °C 16 °C 1009.5 hPa NW 4.7 km/h 12.9 km/h 92% 0.0 mm 56 W/m2
08:00 17.4 °C 15.9 °C 1009.5 hPa WNW 7.9 km/h 11.3 km/h 91% 0.0 mm 72 W/m2
08:05 17.4 °C 15.9 °C 1009.5 hPa WNW 1.4 km/h 12.9 km/h 91% 0.0 mm 70 W/m2
08:10 17.5 °C 16 °C 1009.8 hPa WNW 3.2 km/h 4.8 km/h 91% 0.0 mm 93 W/m2
08:15 17.6 °C 16.1 °C 1009.8 hPa West 3.2 km/h 9.7 km/h 91% 0.0 mm 81 W/m2
08:20 17.6 °C 16.1 °C 1009.8 hPa SW 4.7 km/h 4.8 km/h 91% 0.0 mm 86 W/m2
08:25 17.6 °C 15.9 °C 1009.8 hPa Calm   1.6 km/h 90% 0.0 mm 90 W/m2
08:30 17.7 °C 15.9 °C 1009.8 hPa NNW 8 km/h 8 km/h 89% 0.0 mm 93 W/m2
08:35 17.7 °C 15.9 °C 1009.8 hPa West 1.4 km/h 4.8 km/h 89% 0.0 mm 77 W/m2
08:40 17.7 °C 15.9 °C 1009.8 hPa Calm   1.6 km/h 89% 0.0 mm 72 W/m2
08:45 17.7 °C 15.9 °C 1009.8 hPa West 4.7 km/h 4.8 km/h 89% 0.0 mm 81 W/m2
08:50 17.7 °C 15.9 °C 1009.8 hPa WSW 6.4 km/h 11.3 km/h 89% 0.0 mm 125 W/m2
08:55 17.7 °C 15.9 °C 1009.8 hPa WSW 3.2 km/h 6.4 km/h 89% 0.0 mm 248 W/m2
09:00 17.8 °C 15.8 °C 1009.8 hPa West 1.4 km/h 8 km/h 88% 0.0 mm 204 W/m2
09:05 17.9 °C 15.9 °C 1009.8 hPa West 4.7 km/h 9.7 km/h 88% 0.0 mm 178 W/m2
09:11 17.9 °C 15.9 °C 1009.8 hPa West 4.7 km/h 12.9 km/h 88% 0.0 mm 130 W/m2
09:16 17.9 °C 15.9 °C 1009.8 hPa NNW 7.9 km/h 11.3 km/h 88% 0.0 mm 246 W/m2
09:21 18.1 °C 15.9 °C 1009.8 hPa West 11.1 km/h 12.9 km/h 87% 0.0 mm 225 W/m2
09:26 18.2 °C 16 °C 1009.8 hPa WSW 13 km/h 12.9 km/h 87% 0.0 mm 323 W/m2
09:31 18.4 °C 16.2 °C 1009.8 hPa West 3.2 km/h 9.7 km/h 87% 0.0 mm 378 W/m2
09:36 18.8 °C 16.6 °C 1010.2 hPa West 1.4 km/h 3.2 km/h 87% 0.0 mm 125 W/m2
09:41 18.9 °C 16.3 °C 1009.8 hPa West 3.2 km/h 8 km/h 85% 0.0 mm 158 W/m2
09:46 19.2 °C 16.6 °C 1010.2 hPa NNW 4.7 km/h 11.3 km/h 85% 0.0 mm 373 W/m2
09:51 19.3 °C 16.5 °C 1009.8 hPa NW 7.9 km/h 11.3 km/h 84% 0.0 mm 330 W/m2
09:56 19.3 °C 16.5 °C 1010.2 hPa WNW 6.4 km/h 12.9 km/h 84% 0.0 mm 183 W/m2
10:01 19.3 °C 16.5 °C 1010.2 hPa NW 6.4 km/h 9.7 km/h 84% 0.0 mm 265 W/m2
10:06 19.3 °C 16.7 °C 1010.2 hPa West 3.2 km/h 12.9 km/h 85% 0.0 mm 434 W/m2
10:11 19.4 °C 16.6 °C 1010.2 hPa NW 3.2 km/h 11.3 km/h 84% 0.0 mm 548 W/m2
10:16 19.7 °C 16.9 °C 1010.2 hPa WSW 11.1 km/h 17.7 km/h 84% 0.0 mm 554 W/m2
10:21 19.9 °C 16.7 °C 1010.2 hPa WNW 3.2 km/h 8 km/h 82% 0.0 mm 461 W/m2
10:26 20.1 °C 16.7 °C 1010.2 hPa West 4.7 km/h 17.7 km/h 81% 0.0 mm 258 W/m2
10:31 20.2 °C 16.8 °C 1010.2 hPa West 6.4 km/h 11.3 km/h 81% 0.0 mm 348 W/m2
10:36 20.2 °C 16.6 °C 1010.2 hPa NW 3.2 km/h 9.7 km/h 80% 0.0 mm 239 W/m2
10:41 20.3 °C 16.7 °C 1010.2 hPa SW 9.7 km/h 9.7 km/h 80% 0.0 mm 237 W/m2
10:46 20.3 °C 16.5 °C 1010.2 hPa NW 3.2 km/h 4.8 km/h 79% 0.0 mm 455 W/m2
10:51 20.6 °C 16.4 °C 1010.2 hPa West 6.4 km/h 14.5 km/h 77% 0.0 mm 499 W/m2
10:56 20.7 °C 16.5 °C 1010.2 hPa West 6.4 km/h 12.9 km/h 77% 0.0 mm 406 W/m2
11:01 20.7 °C 16.3 °C 1010.2 hPa WNW 11.1 km/h 14.5 km/h 76% 0.0 mm 345 W/m2
11:06 20.8 °C 16.6 °C 1010.2 hPa WNW 9.7 km/h 9.7 km/h 77% 0.0 mm 385 W/m2
11:11 20.8 °C 16.2 °C 1010.2 hPa WNW 7.9 km/h 14.5 km/h 75% 0.0 mm 378 W/m2
11:16 20.9 °C 16.3 °C 1010.2 hPa West 1.4 km/h 6.4 km/h 75% 0.0 mm 376 W/m2
11:21 21.1 °C 16.1 °C 1010.2 hPa West 16.1 km/h 16.1 km/h 73% 0.0 mm 183 W/m2
11:26 21 °C 16 °C 1010.2 hPa WNW 6.4 km/h 11.3 km/h 73% 0.0 mm 248 W/m2
11:31 21.2 °C 15.7 °C 1010.2 hPa WNW 6.4 km/h 17.7 km/h 71% 0.0 mm 686 W/m2
11:36 21.4 °C 15.7 °C 1010.2 hPa WNW 4.7 km/h 22.5 km/h 70% 0.0 mm 649 W/m2
11:41 21.7 °C 16.2 °C 1010.2 hPa NW 4.7 km/h 12.9 km/h 71% 0.0 mm 823 W/m2
11:46 22 °C 16 °C 1010.2 hPa West 6.4 km/h 22.5 km/h 69% 0.0 mm 323 W/m2
11:51 22.4 °C 16.2 °C 1010.2 hPa West 3.2 km/h 9.7 km/h 68% 0.0 mm 733 W/m2
11:56 22.8 °C 16.6 °C 1010.2 hPa SSE 1.4 km/h 14.5 km/h 68% 0.0 mm 735 W/m2
12:01 22.8 °C 15.4 °C 1010.2 hPa WSW 9.7 km/h 9.7 km/h 63% 0.0 mm 744 W/m2
12:06 22.7 °C 15.3 °C 1010.2 hPa West 3.2 km/h 14.5 km/h 63% 0.0 mm 738 W/m2
12:11 22.7 °C 15 °C 1010.2 hPa WSW 9.7 km/h 19.3 km/h 62% 0.0 mm 744 W/m2
12:16 22.8 °C 15.4 °C 1010.2 hPa WSW 6.4 km/h 14.5 km/h 63% 0.0 mm 765 W/m2
12:21 23 °C 15.6 °C 1010.2 hPa WNW 4.7 km/h 19.3 km/h 63% 0.0 mm 673 W/m2
12:26 23 °C 15.6 °C 1010.2 hPa West 13 km/h 12.9 km/h 63% 0.0 mm 860 W/m2
12:31 23.1 °C 16.4 °C 1009.8 hPa SW 7.9 km/h 17.7 km/h 66% 0.0 mm 766 W/m2
12:36 23.2 °C 15.8 °C 1009.8 hPa NW 6.4 km/h 8 km/h 63% 0.0 mm 789 W/m2
12:41 23.3 °C 15.6 °C 1009.8 hPa WNW 3.2 km/h 8 km/h 62% 0.0 mm 793 W/m2
12:46 23.4 °C 15.7 °C 1009.8 hPa WSW 1.4 km/h 11.3 km/h 62% 0.0 mm 881 W/m2
12:51 23.3 °C 15.6 °C 1009.8 hPa West 1.4 km/h 4.8 km/h 62% 0.0 mm 863 W/m2
12:56 23.6 °C 15.6 °C 1009.8 hPa NNW 6.4 km/h 12.9 km/h 61% 0.0 mm 844 W/m2
13:01 23.9 °C 15.4 °C 1009.5 hPa NW 7.9 km/h 12.9 km/h 59% 0.0 mm 921 W/m2
13:06 24.1 °C 15.6 °C 1009.8 hPa SSE 1.4 km/h 8 km/h 59% 0.0 mm 874 W/m2
13:12 24.4 °C 15.6 °C 1009.8 hPa South 1.4 km/h 6.4 km/h 58% 0.0 mm 835 W/m2
13:17 24.5 °C 15.7 °C 1009.8 hPa West 6.4 km/h 17.7 km/h 58% 0.0 mm 907 W/m2
13:22 24.3 °C 15.5 °C 1009.8 hPa West 3.2 km/h 9.7 km/h 58% 0.0 mm 178 W/m2
13:27 24.2 °C 15.4 °C 1009.8 hPa SW 3.2 km/h 6.4 km/h 58% 0.0 mm 216 W/m2
13:32 24.1 °C 15.3 °C 1009.8 hPa SE 1.4 km/h 3.2 km/h 58% 0.0 mm 197 W/m2
13:37 24.1 °C 15.3 °C 1009.8 hPa West 9.7 km/h 9.7 km/h 58% 0.0 mm 139 W/m2
13:42 23.7 °C 14.9 °C 1009.8 hPa NNW 1.4 km/h 3.2 km/h 58% 0.0 mm 141 W/m2
13:47 23.7 °C 15.2 °C 1009.8 hPa WNW 3.2 km/h 4.8 km/h 59% 0.0 mm 972 W/m2
13:52 23.7 °C 14.9 °C 1009.8 hPa ESE 3.2 km/h 4.8 km/h 58% 0.0 mm 174 W/m2
13:57 23.8 °C 15 °C 1009.8 hPa West 1.4 km/h 4.8 km/h 58% 0.0 mm 241 W/m2
14:02 23.8 °C 15 °C 1009.8 hPa WNW 3.2 km/h 11.3 km/h 58% 0.0 mm 199 W/m2
14:07 23.8 °C 15.8 °C 1009.8 hPa WNW 3.2 km/h 3.2 km/h 61% 0.0 mm 243 W/m2
14:12 24 °C 15 °C 1009.8 hPa NW 6.4 km/h 11.3 km/h 57% 0.0 mm 983 W/m2
14:17 24.5 °C 15.7 °C 1009.8 hPa NNW 1.4 km/h 3.2 km/h 58% 0.0 mm 898 W/m2
14:22 24.8 °C 14.9 °C 1009.5 hPa North 1.4 km/h 3.2 km/h 54% 0.0 mm 176 W/m2
14:27 24.6 °C 15.5 °C 1009.8 hPa ENE 1.4 km/h 1.6 km/h 57% 0.0 mm 174 W/m2
14:32 24.4 °C 15.3 °C 1009.8 hPa East 1.4 km/h 4.8 km/h 57% 0.0 mm 144 W/m2
14:37 24.2 °C 14.6 °C 1009.5 hPa ESE 1.4 km/h 3.2 km/h 55% 0.0 mm 274 W/m2
14:42 24.3 °C 15.2 °C 1009.5 hPa NW 3.2 km/h 3.2 km/h 57% 0.0 mm 1011 W/m2
14:47 24.5 °C 14.6 °C 1009.5 hPa West 4.7 km/h 12.9 km/h 54% 0.0 mm 1004 W/m2
14:52 24.7 °C 14.8 °C 1009.5 hPa WSW 1.4 km/h 4.8 km/h 54% 0.0 mm 976 W/m2
14:57 24.7 °C 14.5 °C 1009.5 hPa WNW 3.2 km/h 12.9 km/h 53% 0.0 mm 171 W/m2
15:02 24.6 °C 14.4 °C 1009.5 hPa SSE 1.4 km/h 9.7 km/h 53% 0.0 mm 186 W/m2
15:07 24.5 °C 14.6 °C 1009.1 hPa North 6.4 km/h 12.9 km/h 54% 0.0 mm 260 W/m2
15:12 24.6 °C 14.7 °C 1009.5 hPa WSW 3.2 km/h 12.9 km/h 54% 0.0 mm 404 W/m2
15:17 24.8 °C 14.9 °C 1009.5 hPa East 4.7 km/h 8 km/h 54% 0.0 mm 881 W/m2
15:22 25.3 °C 15 °C 1009.5 hPa West 3.2 km/h 9.7 km/h 53% 0.0 mm 176 W/m2
15:27 25.2 °C 15.2 °C 1009.1 hPa WSW 3.2 km/h 4.8 km/h 54% 0.0 mm 255 W/m2
15:32 25.2 °C 14.6 °C 1009.1 hPa NNE 4.7 km/h 4.8 km/h 52% 0.0 mm 984 W/m2
15:37 25.4 °C 14.5 °C 1009.1 hPa WNW 6.4 km/h 11.3 km/h 51% 0.0 mm 856 W/m2
15:42 25.6 °C 14.7 °C 1009.1 hPa SE 4.7 km/h 11.3 km/h 51% 0.0 mm 826 W/m2
15:47 25.9 °C 14.7 °C 1009.1 hPa West 3.2 km/h 9.7 km/h 50% 0.0 mm 803 W/m2
15:52 25.7 °C 14.2 °C 1009.1 hPa ENE 4.7 km/h 9.7 km/h 49% 0.0 mm 174 W/m2
15:57 25.2 °C 14.3 °C 1009.1 hPa WSW 6.4 km/h 12.9 km/h 51% 0.0 mm 188 W/m2
16:02 25.3 °C 14.1 °C 1009.1 hPa NW 1.4 km/h 6.4 km/h 50% 0.0 mm 171 W/m2
16:07 25.3 °C 14.1 °C 1008.8 hPa NE 3.2 km/h 12.9 km/h 50% 0.0 mm 120 W/m2
16:12 25.2 °C 14 °C 1008.8 hPa NW 6.4 km/h 9.7 km/h 50% 0.0 mm 193 W/m2
16:17 25 °C 14.2 °C 1008.8 hPa WNW 3.2 km/h 9.7 km/h 51% 0.0 mm 229 W/m2
16:22 25.1 °C 14.6 °C 1008.8 hPa WSW 1.4 km/h 6.4 km/h 52% 0.0 mm 171 W/m2
16:27 25.1 °C 15.1 °C 1008.8 hPa West 6.4 km/h 6.4 km/h 54% 0.0 mm 174 W/m2
16:32 24.9 °C 14.4 °C 1008.8 hPa WNW 6.4 km/h 9.7 km/h 52% 0.0 mm 315 W/m2
16:37 25.3 °C 14.4 °C 1008.8 hPa WNW 4.7 km/h 9.7 km/h 51% 0.0 mm 856 W/m2
16:42 25.3 °C 14.1 °C 1008.8 hPa East 1.4 km/h 6.4 km/h 50% 0.0 mm 214 W/m2
16:47 25.3 °C 14.1 °C 1008.8 hPa East 3.2 km/h 12.9 km/h 50% 0.0 mm 172 W/m2
16:52 25.1 °C 13.9 °C 1008.8 hPa WNW 1.4 km/h 3.2 km/h 50% 0.0 mm 221 W/m2
16:57 25.1 °C 13.9 °C 1008.5 hPa NNW 3.2 km/h 3.2 km/h 50% 0.0 mm 169 W/m2
17:02 25 °C 13.9 °C 1008.5 hPa Calm   14.5 km/h 50% 0.0 mm 114 W/m2
17:07 24.9 °C 15 °C 1008.8 hPa West 16.3 km/h 19.3 km/h 54% 0.0 mm 139 W/m2
17:12 24 °C 15.2 °C 1008.8 hPa SW 3.2 km/h 6.4 km/h 58% 0.0 mm 135 W/m2
17:17 23.7 °C 15.7 °C 1008.8 hPa Calm   19.3 km/h 61% 0.0 mm 123 W/m2
17:22 23.5 °C 16.3 °C 1008.8 hPa Calm   1.6 km/h 64% 0.0 mm 151 W/m2
17:27 23.5 °C 16.5 °C 1008.5 hPa Calm     65% 0.0 mm 139 W/m2
17:32 23.5 °C 17.3 °C 1008.8 hPa NW 1.4 km/h 1.6 km/h 68% 0.0 mm 142 W/m2
17:37 23.6 °C 15.4 °C 1008.8 hPa Calm   1.6 km/h 60% 0.0 mm 158 W/m2
17:43 23.7 °C 16 °C 1008.5 hPa Calm   1.6 km/h 62% 0.0 mm 132 W/m2
17:48 23.9 °C 15.4 °C 1008.5 hPa Calm     59% 0.0 mm 125 W/m2
17:53 24.1 °C 15 °C 1008.5 hPa East 4.7 km/h 4.8 km/h 57% 0.0 mm 125 W/m2
17:58 24.3 °C 15 °C 1008.8 hPa East 1.4 km/h 3.2 km/h 56% 0.0 mm 116 W/m2
18:03 24.4 °C 15.3 °C 1008.8 hPa Calm   1.6 km/h 57% 0.0 mm 142 W/m2
18:08 24.6 °C 15.8 °C 1008.5 hPa ESE 1.4 km/h 9.7 km/h 58% 0.0 mm 151 W/m2
18:13 24.6 °C 15.5 °C 1008.5 hPa NW 3.2 km/h 4.8 km/h 57% 0.0 mm 258 W/m2
18:18 24.8 °C 14.6 °C 1008.5 hPa Calm   1.6 km/h 53% 0.0 mm 287 W/m2
18:23 25 °C 16.2 °C 1008.5 hPa Calm     58% 0.0 mm 149 W/m2
18:28 25 °C 14.5 °C 1008.5 hPa WNW 3.2 km/h 6.4 km/h 52% 0.0 mm 264 W/m2
18:33 25.1 °C 14.6 °C 1008.5 hPa West 6.4 km/h 6.4 km/h 52% 0.0 mm 163 W/m2
18:38 25 °C 14.5 °C 1008.5 hPa WNW 4.7 km/h 12.9 km/h 52% 0.0 mm 167 W/m2
18:43 25 °C 14.2 °C 1008.8 hPa NW 1.4 km/h 11.3 km/h 51% 0.0 mm 183 W/m2
18:48 25.2 °C 14.6 °C 1008.5 hPa West 4.7 km/h 6.4 km/h 52% 0.0 mm 360 W/m2
18:53 25.4 °C 13.9 °C 1008.5 hPa SW 6.4 km/h 11.3 km/h 49% 0.0 mm 169 W/m2
18:58 25.4 °C 14.5 °C 1008.5 hPa WNW 3.2 km/h 11.3 km/h 51% 0.0 mm 341 W/m2
19:03 25.4 °C 14.2 °C 1008.5 hPa West 4.7 km/h 9.7 km/h 50% 0.0 mm 323 W/m2
19:08 25.1 °C 13.9 °C 1008.8 hPa West 6.4 km/h 12.9 km/h 50% 0.0 mm 95 W/m2
19:13 24.8 °C 13.7 °C 1008.8 hPa WSW 4.7 km/h 11.3 km/h 50% 0.0 mm 100 W/m2
19:18 24.6 °C 13.8 °C 1008.8 hPa West 9.7 km/h 12.9 km/h 51% 0.0 mm 56 W/m2
19:23 24.4 °C 13.9 °C 1008.5 hPa NW 3.2 km/h 4.8 km/h 52% 0.0 mm 109 W/m2
19:28 24.3 °C 13.8 °C 1008.5 hPa WNW 3.2 km/h 12.9 km/h 52% 0.0 mm 65 W/m2
19:33 24.2 °C 13.7 °C 1008.5 hPa WNW 3.2 km/h 6.4 km/h 52% 0.0 mm 62 W/m2
19:38 24.1 °C 13.6 °C 1008.5 hPa WSW 3.2 km/h 9.7 km/h 52% 0.0 mm 121 W/m2
19:43 24 °C 13.8 °C 1008.5 hPa West 3.2 km/h 6.4 km/h 53% 0.0 mm 84 W/m2
19:48 23.9 °C 14 °C 1008.8 hPa WNW 4.7 km/h 8 km/h 54% 0.0 mm 77 W/m2
19:53 23.9 °C 14 °C 1008.8 hPa West 1.4 km/h 3.2 km/h 54% 0.0 mm 67 W/m2
19:58 23.8 °C 13.9 °C 1008.8 hPa West 4.7 km/h 9.7 km/h 54% 0.0 mm 46 W/m2
20:03 23.7 °C 14.1 °C 1008.8 hPa West 3.2 km/h 4.8 km/h 55% 0.0 mm 40 W/m2
20:08 23.5 °C 13.9 °C 1008.8 hPa West 4.7 km/h 4.8 km/h 55% 0.0 mm 37 W/m2
20:13 23.3 °C 13.8 °C 1008.8 hPa WNW 1.4 km/h 4.8 km/h 55% 0.0 mm 30 W/m2
20:18 23.3 °C 14 °C 1008.8 hPa West 4.7 km/h 6.4 km/h 56% 0.0 mm 26 W/m2
20:23 23.2 °C 13.9 °C 1008.8 hPa West 4.7 km/h 8 km/h 56% 0.0 mm 18 W/m2
20:28 23.1 °C 14.1 °C 1008.8 hPa Calm   3.2 km/h 57% 0.0 mm 19 W/m2
20:33 22.9 °C 14.2 °C 1008.8 hPa West 1.4 km/h 8 km/h 58% 0.0 mm 16 W/m2
20:38 22.7 °C 14.3 °C 1009.1 hPa Calm   1.6 km/h 59% 0.0 mm 12 W/m2
20:43 22.5 °C 14.1 °C 1009.1 hPa WNW 3.2 km/h 6.4 km/h 59% 0.0 mm 7 W/m2
20:48 22.3 °C 13.6 °C 1009.1 hPa NW 3.2 km/h 6.4 km/h 58% 0.0 mm 5 W/m2
20:53 22.3 °C 13.9 °C 1009.1 hPa WNW 3.2 km/h 6.4 km/h 59% 0.0 mm 0 W/m2
20:58 22.1 °C 13.7 °C 1009.1 hPa WNW 3.2 km/h 4.8 km/h 59% 0.0 mm 0 W/m2
21:03 22 °C 13.9 °C 1009.5 hPa Calm   3.2 km/h 60% 0.0 mm 0 W/m2
21:08 21.8 °C 13.7 °C 1009.5 hPa West 3.2 km/h 4.8 km/h 60% 0.0 mm 0 W/m2
21:13 21.7 °C 13.8 °C 1009.5 hPa WSW 6.4 km/h 9.7 km/h 61% 0.0 mm 0 W/m2
21:18 21.4 °C 13.6 °C 1009.5 hPa West 3.2 km/h 6.4 km/h 61% 0.0 mm 0 W/m2
21:23 21.3 °C 13.7 °C 1009.8 hPa WNW 3.2 km/h 6.4 km/h 62% 0.0 mm 0 W/m2
21:28 21.2 °C 13.6 °C 1009.8 hPa West 6.4 km/h 9.7 km/h 62% 0.0 mm 0 W/m2
21:33 21.1 °C 13.8 °C 1009.8 hPa West 4.7 km/h 6.4 km/h 63% 0.0 mm 0 W/m2
21:38 21 °C 13.9 °C 1010.2 hPa WSW 1.4 km/h 9.7 km/h 64% 0.0 mm 0 W/m2
21:43 20.9 °C 14.1 °C 1010.2 hPa West 3.2 km/h 4.8 km/h 65% 0.0 mm 0 W/m2
21:48 20.8 °C 14 °C 1010.2 hPa West 4.7 km/h 9.7 km/h 65% 0.0 mm 0 W/m2
21:53 20.8 °C 14.2 °C 1010.2 hPa WNW 3.2 km/h 3.2 km/h 66% 0.0 mm 0 W/m2
21:58 20.8 °C 14.2 °C 1010.5 hPa West 3.2 km/h 6.4 km/h 66% 0.0 mm 0 W/m2
22:03 20.7 °C 14.1 °C 1010.5 hPa West 3.2 km/h 6.4 km/h 66% 0.0 mm 0 W/m2
22:08 20.8 °C 14.2 °C 1010.5 hPa WSW 4.7 km/h 4.8 km/h 66% 0.0 mm 0 W/m2
22:13 20.8 °C 14.4 °C 1010.5 hPa NW 1.4 km/h 6.4 km/h 67% 0.0 mm 0 W/m2
22:19 20.7 °C 14.4 °C 1010.5 hPa NW 3.2 km/h 6.4 km/h 67% 0.0 mm 0 W/m2
22:24 20.7 °C 14.4 °C 1010.8 hPa WSW 6.4 km/h 6.4 km/h 67% 0.0 mm 0 W/m2
22:29 20.7 °C 14.4 °C 1010.8 hPa WSW 3.2 km/h 8 km/h 67% 0.0 mm 0 W/m2
22:34 20.6 °C 14.5 °C 1010.8 hPa Calm   1.6 km/h 68% 0.0 mm 0 W/m2
22:39 20.6 °C 14.5 °C 1010.8 hPa West 1.4 km/h 3.2 km/h 68% 0.0 mm 0 W/m2
22:44 20.5 °C 14.4 °C 1010.8 hPa West 3.2 km/h 4.8 km/h 68% 0.0 mm 0 W/m2
22:49 20.4 °C 14.5 °C 1010.8 hPa Calm   3.2 km/h 69% 0.0 mm 0 W/m2
22:54 20.3 °C 14.6 °C 1010.8 hPa Calm   1.6 km/h 70% 0.0 mm 0 W/m2
22:59 20.3 °C 14.6 °C 1010.8 hPa WNW 3.2 km/h 3.2 km/h 70% 0.0 mm 0 W/m2
23:05 20.2 °C 14.8 °C 1010.8 hPa Calm   1.6 km/h 71% 0.0 mm 0 W/m2
23:10 20 °C 14.8 °C 1010.8 hPa Calm   3.2 km/h 72% 0.0 mm 0 W/m2
23:15 19.8 °C 14.8 °C 1010.8 hPa Calm     73% 0.0 mm 0 W/m2
23:20 19.6 °C 14.8 °C 1010.8 hPa Calm     74% 0.0 mm 0 W/m2
23:25 19.4 °C 14.9 °C 1010.8 hPa Calm   1.6 km/h 75% 0.0 mm 0 W/m2
23:30 19.1 °C 14.6 °C 1010.8 hPa WNW 1.4 km/h 3.2 km/h 75% 0.0 mm 0 W/m2
23:35 19.1 °C 14.8 °C 1010.8 hPa Calm     76% 0.0 mm 0 W/m2
23:40 18.9 °C 14.8 °C 1010.8 hPa Calm     77% 0.0 mm 0 W/m2
23:45 18.7 °C 14.8 °C 1010.8 hPa Calm     78% 0.0 mm 0 W/m2
23:50 18.6 °C 14.7 °C 1010.8 hPa NW 1.4 km/h 3.2 km/h 78% 0.0 mm 0 W/m2
23:55 18.5 °C 14.6 °C 1010.8 hPa WNW 1.4 km/h 3.2 km/h 78% 0.0 mm 0 W/m2
Juneau County Weather
Compliments of Weather Underground - 4 mb